Time;durP1;ratioP1;P1;durP2;ratioP2;P2;SDS_P1;SDS_P2;PMS_P1;PMS_P2;Temp;Humidity;BMP_temperature;BMP_pressure;BME280_temperature;BME280_humidity;BME280_pressure;Samples;Min_cycle;Max_cycle;Signal;HPM_P1;HPM_P2
2021/05/18 00:00:15;;;;;;;17.48;11.57;;;17.60;63.40;;;;;;6152131;23;20093;-64
2021/05/18 00:02:41;;;;;;;16.23;11.18;;;17.50;63.20;;;;;;6153937;23;20431;-65
2021/05/18 00:05:10;;;;;;;18.15;12.10;;;17.40;62.90;;;;;;6152194;23;20020;-64
2021/05/18 00:07:37;;;;;;;16.90;11.35;;;17.40;62.80;;;;;;6154439;23;20013;-64
2021/05/18 00:12:51;;;;;;;16.08;10.93;;;17.30;63.30;;;;;;6129993;23;20028;-65
2021/05/18 00:15:19;;;;;;;11.65;8.50;;;17.40;63.20;;;;;;6152071;23;20060;-64
2021/05/18 00:17:45;;;;;;;15.30;10.68;;;17.40;61.90;;;;;;6151792;23;20080;-64
2021/05/18 00:20:27;;;;;;;8.57;5.82;;;17.30;62.60;;;;;;6152209;23;20025;-64
2021/05/18 00:22:53;;;;;;;14.80;9.25;;;17.30;61.20;;;;;;6152288;23;20013;-65
2021/05/18 00:25:19;;;;;;;12.95;8.90;;;17.10;62.20;;;;;;6153704;23;20037;-64
2021/05/18 00:27:46;;;;;;;13.43;10.30;;;17.10;62.30;;;;;;6127219;23;20052;-65
2021/05/18 00:30:13;;;;;;;12.82;9.10;;;17.10;62.60;;;;;;6154279;23;20026;-65
2021/05/18 00:32:39;;;;;;;15.73;10.07;;;17.10;62.60;;;;;;6151432;23;20032;-64
2021/05/18 00:35:09;;;;;;;15.02;9.35;;;17.10;63.10;;;;;;6153031;23;20033;-65
2021/05/18 00:37:35;;;;;;;14.63;9.30;;;17.20;63.00;;;;;;6151675;23;20016;-64
2021/05/18 00:40:01;;;;;;;10.68;7.90;;;17.20;63.00;;;;;;6153017;23;20297;-64
2021/05/18 00:42:27;;;;;;;13.75;9.15;;;17.20;62.50;;;;;;6153235;23;20021;-64
2021/05/18 00:44:54;;;;;;;13.95;9.05;;;17.20;62.70;;;;;;6153065;23;20018;-64
2021/05/18 00:47:19;;;;;;;11.68;7.93;;;17.20;62.70;;;;;;6155118;23;20013;-64
2021/05/18 00:49:46;;;;;;;12.23;8.43;;;17.30;62.90;;;;;;6154323;23;20024;-65
2021/05/18 00:52:12;;;;;;;11.88;8.48;;;17.30;63.00;;;;;;6151764;23;20092;-65
2021/05/18 00:54:43;;;;;;;11.63;8.25;;;17.30;62.80;;;;;;6154366;23;20017;-65
2021/05/18 00:59:54;;;;;;;11.45;7.70;;;17.20;62.60;;;;;;6125520;23;20128;-64
2021/05/18 01:02:23;;;;;;;11.35;7.93;;;17.20;62.90;;;;;;6152243;23;20033;-65
2021/05/18 01:04:55;;;;;;;11.18;7.50;;;17.20;62.60;;;;;;6153292;23;20446;-65
2021/05/18 01:07:21;;;;;;;12.18;7.38;;;17.20;62.40;;;;;;6152697;23;20017;-64
2021/05/18 01:09:47;;;;;;;10.30;6.55;;;17.20;62.40;;;;;;6152485;23;20036;-64
2021/05/18 01:12:13;;;;;;;14.18;6.60;;;17.30;62.10;;;;;;6151520;23;20021;-64
2021/05/18 01:14:39;;;;;;;10.07;6.97;;;17.30;62.20;;;;;;6153659;23;20463;-65
2021/05/18 01:17:05;;;;;;;8.75;6.18;;;17.30;62.80;;;;;;6152065;23;20009;-64
2021/05/18 01:19:34;;;;;;;8.55;6.25;;;17.30;62.30;;;;;;6151547;23;20051;-65
2021/05/18 01:22:02;;;;;;;7.97;5.97;;;17.30;62.40;;;;;;6151238;23;20017;-64
2021/05/18 01:24:28;;;;;;;10.30;6.68;;;17.30;62.30;;;;;;6153155;23;20021;-65
2021/05/18 01:26:54;;;;;;;9.82;6.38;;;17.40;62.20;;;;;;6151218;23;20080;-64
2021/05/18 01:29:22;;;;;;;8.60;6.50;;;17.30;61.70;;;;;;6152414;23;20316;-65
2021/05/18 01:31:48;;;;;;;8.63;5.82;;;17.30;62.10;;;;;;6125067;23;20078;-65
2021/05/18 01:34:15;;;;;;;8.20;5.90;;;17.30;62.30;;;;;;6151342;23;20316;-65
2021/05/18 01:36:41;;;;;;;8.30;5.88;;;17.20;62.20;;;;;;6151949;23;20089;-66
2021/05/18 01:44:26;;;;;;;8.35;5.22;;;17.10;61.70;;;;;;6154453;23;20072;-65
2021/05/18 01:46:53;;;;;;;7.68;5.18;;;17.10;62.20;;;;;;6151042;23;20332;-65
2021/05/18 01:49:19;;;;;;;7.57;5.22;;;17.10;62.30;;;;;;6125545;23;20060;-64
2021/05/18 01:51:48;;;;;;;6.88;4.95;;;17.20;62.40;;;;;;6151618;23;20009;-64
2021/05/18 01:54:27;;;;;;;7.10;5.40;;;17.20;62.10;;;;;;6151416;23;20365;-65
2021/05/18 01:59:40;;;;;;;6.50;4.70;;;17.30;62.00;;;;;;6151433;23;20018;-65
2021/05/18 02:02:06;;;;;;;8.48;6.20;;;17.20;62.10;;;;;;6152930;23;20065;-64
2021/05/18 02:04:43;;;;;;;9.60;5.40;;;17.00;61.10;;;;;;6151354;23;20014;-64
2021/05/18 02:07:19;;;;;;;9.07;4.45;;;16.90;62.10;;;;;;6153830;23;20016;-65
2021/05/18 02:09:45;;;;;;;5.57;4.38;;;16.90;63.30;;;;;;6153994;23;20171;-65
2021/05/18 02:12:11;;;;;;;7.03;4.65;;;16.90;62.80;;;;;;6153273;23;20033;-64
2021/05/18 02:14:39;;;;;;;7.57;5.00;;;17.00;62.70;;;;;;6125396;23;20503;-64
2021/05/18 02:19:59;;;;;;;5.47;3.83;;;17.00;62.40;;;;;;6150892;23;20539;-65
2021/05/18 02:25:10;;;;;;;5.45;3.92;;;16.60;63.10;;;;;;6152410;23;20013;-64
2021/05/18 02:27:37;;;;;;;7.93;5.32;;;16.70;63.10;;;;;;6151085;23;20049;-65
2021/05/18 02:30:04;;;;;;;6.03;4.10;;;16.80;62.10;;;;;;6151509;23;20025;-64
2021/05/18 02:32:31;;;;;;;6.10;3.78;;;16.90;61.80;;;;;;6152003;23;20017;-65
2021/05/18 02:34:58;;;;;;;6.22;4.28;;;16.90;62.00;;;;;;6125274;23;20060;-65
2021/05/18 02:37:23;;;;;;;5.53;3.92;;;16.90;61.90;;;;;;6150787;23;20076;-65
2021/05/18 02:39:49;;;;;;;6.60;5.00;;;16.90;61.80;;;;;;6151798;23;20451;-64
2021/05/18 02:42:16;;;;;;;4.88;3.95;;;16.90;61.50;;;;;;6152043;23;20348;-64
2021/05/18 02:45:00;;;;;;;4.05;3.42;;;16.80;61.60;;;;;;6151958;23;20017;-65
2021/05/18 02:50:12;;;;;;;5.03;3.47;;;16.80;61.50;;;;;;6151551;23;20055;-64
2021/05/18 02:52:39;;;;;;;5.53;3.72;;;16.80;62.00;;;;;;6153682;23;20477;-64
2021/05/18 02:55:06;;;;;;;6.30;3.75;;;16.80;62.00;;;;;;6153154;23;20057;-65
2021/05/18 02:57:36;;;;;;;4.32;3.58;;;16.90;61.80;;;;;;6151674;23;20020;-65
2021/05/18 03:00:16;;;;;;;6.93;3.72;;;16.80;61.80;;;;;;6150248;23;20021;-64
2021/05/18 03:02:42;;;;;;;4.35;3.40;;;16.90;61.80;;;;;;6151126;23;20074;-65
2021/05/18 03:05:09;;;;;;;4.22;3.38;;;16.90;61.70;;;;;;6151819;23;20017;-65
2021/05/18 03:07:35;;;;;;;5.13;3.15;;;16.90;61.60;;;;;;6150964;23;20400;-64
2021/05/18 03:10:02;;;;;;;4.45;3.20;;;16.70;61.80;;;;;;6153414;23;20045;-64
2021/05/18 03:12:29;;;;;;;5.88;3.80;;;16.70;62.00;;;;;;6150659;23;20022;-64
2021/05/18 03:14:55;;;;;;;4.90;2.92;;;16.70;62.00;;;;;;6150398;23;20025;-66
2021/05/18 03:17:21;;;;;;;5.05;3.58;;;16.70;62.20;;;;;;6125883;23;20049;-63
2021/05/18 03:19:47;;;;;;;5.38;3.63;;;16.70;61.80;;;;;;6151680;23;20029;-66
2021/05/18 03:22:13;;;;;;;4.25;2.88;;;16.70;61.50;;;;;;6152251;23;20021;-66
2021/05/18 03:24:42;;;;;;;4.63;3.15;;;16.70;62.00;;;;;;6150820;23;20092;-65
2021/05/18 03:27:11;;;;;;;4.85;3.15;;;16.80;62.20;;;;;;6152908;23;20009;-66
2021/05/18 03:29:37;;;;;;;6.15;3.05;;;16.80;62.10;;;;;;6151863;23;20052;-66
2021/05/18 03:34:48;;;;;;;4.60;3.28;;;16.80;62.20;;;;;;6152283;23;20029;-66
2021/05/18 03:37:40;;;;;;;4.75;3.20;;;16.90;61.90;;;;;;6151896;23;20017;-66
2021/05/18 03:40:10;;;;;;;4.50;3.03;;;16.90;61.90;;;;;;6151988;23;20017;-66
2021/05/18 03:42:43;;;;;;;3.63;2.53;;;17.00;61.80;;;;;;6150776;23;20026;-66
2021/05/18 03:45:15;;;;;;;4.30;2.83;;;17.00;61.60;;;;;;6151510;23;20457;-66
2021/05/18 03:53:41;;;;;;;6.07;3.70;;;16.90;61.80;;;;;;6150140;23;20014;-66
2021/05/18 03:58:58;;;;;;;4.90;3.35;;;16.70;61.90;;;;;;6149957;23;20383;-63
2021/05/18 04:04:22;;;;;;;6.07;3.63;;;16.40;62.50;;;;;;6152792;23;20014;-66
2021/05/18 04:18:22;;;;;;;3.72;2.50;;;16.60;62.10;;;;;;6149911;23;20017;-66
2021/05/18 04:23:25;;;;;;;4.07;2.33;;;16.70;61.80;;;;;;6128361;23;20013;-66
2021/05/18 04:26:09;;;;;;;5.10;2.83;;;16.70;61.70;;;;;;6150449;23;20014;-65
2021/05/18 05:00:55;;;;;;;4.80;2.65;;;17.10;61.50;;;;;;6152038;23;20020;-64
2021/05/18 05:16:30;;;;;;;6.05;3.30;;;16.40;62.00;;;;;;6152627;23;20013;-65
2021/05/18 05:18:56;;;;;;;8.75;3.55;;;16.40;62.50;;;;;;6152068;23;20456;-65
2021/05/18 05:21:31;;;;;;;7.45;3.13;;;16.40;62.60;;;;;;6151638;23;20039;-65
2021/05/18 05:23:57;;;;;;;7.30;2.90;;;16.50;62.80;;;;;;6150331;23;20017;-64
2021/05/18 05:26:23;;;;;;;6.35;2.50;;;16.50;63.10;;;;;;6123739;23;20077;-65
2021/05/18 05:28:49;;;;;;;5.85;4.13;;;16.60;63.80;;;;;;6152427;23;20344;-65
2021/05/18 05:31:15;;;;;;;8.98;3.83;;;16.80;62.30;;;;;;6151618;23;20068;-66
2021/05/18 05:33:41;;;;;;;7.82;3.47;;;16.80;63.60;;;;;;6150820;23;20622;-66
2021/05/18 05:36:07;;;;;;;6.75;2.55;;;16.80;65.90;;;;;;6150425;23;20018;-66
2021/05/18 05:38:34;;;;;;;9.25;3.22;;;16.90;66.40;;;;;;6151640;23;20381;-65
2021/05/18 05:41:00;;;;;;;4.55;2.85;;;17.00;67.10;;;;;;6152638;23;20088;-66
2021/05/18 05:43:25;;;;;;;14.10;2.92;;;17.10;66.50;;;;;;6151951;23;20125;-65
2021/05/18 05:45:51;;;;;;;12.43;4.68;;;17.10;66.80;;;;;;6152196;23;20455;-66
2021/05/18 05:48:20;;;;;;;9.05;5.00;;;17.20;67.00;;;;;;6125425;23;20020;-65
2021/05/18 05:50:49;;;;;;;34.95;27.30;;;17.20;65.70;;;;;;6151110;23;20033;-66
2021/05/18 05:53:16;;;;;;;98.15;87.55;;;17.10;66.10;;;;;;6151540;23;20020;-65
2021/05/18 05:55:42;;;;;;;386.88;344.20;;;17.20;67.60;;;;;;6151324;23;20021;-65
2021/05/18 05:58:08;;;;;;;345.98;308.10;;;17.50;67.60;;;;;;6150769;23;20043;-66
2021/05/18 06:00:34;;;;;;;134.90;113.88;;;17.80;66.70;;;;;;6152885;23;20097;-66
2021/05/18 06:03:00;;;;;;;56.03;41.47;;;18.00;66.30;;;;;;6152320;23;20028;-67
2021/05/18 06:05:26;;;;;;;39.03;27.45;;;18.10;65.00;;;;;;6152484;23;20017;-67
2021/05/18 06:07:52;;;;;;;18.52;11.90;;;18.10;65.20;;;;;;6126096;23;20014;-66
2021/05/18 06:10:26;;;;;;;27.17;16.70;;;18.10;64.30;;;;;;6151507;23;20024;-65
2021/05/18 06:29:32;;;;;;;15.77;8.80;;;18.00;67.80;;;;;;6150063;23;20820;-65
2021/05/18 06:43:00;;;;;;;8.00;3.75;;;17.90;62.70;;;;;;6151409;23;20020;-66
2021/05/18 06:45:54;;;;;;;7.68;3.30;;;17.80;62.10;;;;;;6152121;23;20017;-65
2021/05/18 06:48:20;;;;;;;4.20;3.10;;;17.90;61.10;;;;;;6152587;23;20017;-68
2021/05/18 06:50:46;;;;;;;6.15;2.90;;;18.10;59.80;;;;;;6153030;23;20014;-64
2021/05/18 06:53:12;;;;;;;9.10;3.28;;;18.30;58.90;;;;;;6154022;23;20010;-64
2021/05/18 06:55:39;;;;;;;5.25;3.33;;;18.60;58.20;;;;;;6125768;23;20025;-66
2021/05/18 06:58:14;;;;;;;5.10;2.90;;;18.70;58.10;;;;;;6149854;23;20451;-66
2021/05/18 07:00:42;;;;;;;4.78;2.78;;;18.90;57.60;;;;;;6152489;23;20092;-66
2021/05/18 07:03:14;;;;;;;5.10;2.65;;;19.10;57.30;;;;;;6151377;23;20021;-66
2021/05/18 07:05:56;;;;;;;5.13;2.77;;;19.20;56.70;;;;;;6151924;23;20060;-65
2021/05/18 07:10:54;;;;;;;6.28;2.75;;;18.80;57.60;;;;;;6124266;23;20017;-65
2021/05/18 07:13:20;;;;;;;3.53;2.75;;;18.60;56.90;;;;;;6150442;23;20010;-65
2021/05/18 07:15:46;;;;;;;4.32;2.40;;;18.50;57.50;;;;;;6150319;23;20021;-64
2021/05/18 07:18:12;;;;;;;4.00;3.22;;;18.50;57.30;;;;;;6150620;23;20024;-64
2021/05/18 07:20:38;;;;;;;5.13;2.35;;;18.70;56.30;;;;;;6151534;23;20022;-63
2021/05/18 07:23:11;;;;;;;4.50;2.60;;;18.80;56.70;;;;;;6125087;23;20019;-65
2021/05/18 07:25:37;;;;;;;3.77;2.30;;;18.90;56.50;;;;;;6151811;23;20013;-65
2021/05/18 07:28:07;;;;;;;3.33;2.15;;;19.20;55.80;;;;;;6150348;23;20579;-65
2021/05/18 07:30:34;;;;;;;7.20;2.30;;;19.50;53.90;;;;;;6150998;23;20427;-65
2021/05/18 07:33:00;;;;;;;3.17;2.40;;;19.80;53.70;;;;;;6150347;23;20035;-65
2021/05/18 07:35:26;;;;;;;4.32;2.28;;;19.90;53.20;;;;;;6151702;23;20017;-65
2021/05/18 07:37:52;;;;;;;5.18;2.63;;;19.80;53.70;;;;;;6151159;23;20329;-65
2021/05/18 07:40:18;;;;;;;4.03;2.50;;;20.00;53.60;;;;;;6150093;23;20331;-66
2021/05/18 07:42:44;;;;;;;5.00;2.75;;;20.30;54.00;;;;;;6150603;23;20079;-67
2021/05/18 07:45:10;;;;;;;5.35;2.42;;;20.30;52.70;;;;;;6151396;23;20448;-66
2021/05/18 07:47:38;;;;;;;2.63;2.10;;;20.00;52.80;;;;;;6151523;23;20438;-66
2021/05/18 07:50:13;;;;;;;2.20;1.88;;;19.90;53.20;;;;;;6124159;23;20319;-65
2021/05/18 08:06:38;;;;;;;4.10;1.90;;;20.50;51.20;;;;;;6140794;23;20040;-64
2021/05/18 08:09:04;;;;;;;5.80;2.20;;;20.60;51.20;;;;;;6151569;23;20443;-64
2021/05/18 08:11:33;;;;;;;3.30;2.00;;;20.50;50.50;;;;;;6151366;23;20405;-64
2021/05/18 08:13:59;;;;;;;3.80;2.35;;;20.40;51.60;;;;;;6151141;23;20435;-64
2021/05/18 08:16:50;;;;;;;4.90;2.35;;;20.10;51.50;;;;;;6150107;23;20040;-64
2021/05/18 08:19:27;;;;;;;3.65;2.55;;;20.10;52.20;;;;;;6150074;23;20402;-63
2021/05/18 10:36:04;;;;;;;2.15;1.55;;;18.60;58.20;;;;;;6130100;23;20343;-66
2021/05/18 10:38:43;;;;;;;2.08;1.40;;;18.60;58.10;;;;;;6151199;23;20087;-65
2021/05/18 10:41:15;;;;;;;2.78;1.67;;;18.60;58.00;;;;;;6151894;23;20058;-64
2021/05/18 10:43:42;;;;;;;2.50;1.92;;;18.60;58.20;;;;;;6150993;23;20037;-66
2021/05/18 10:46:22;;;;;;;3.40;2.00;;;18.60;58.30;;;;;;6151134;23;20466;-65
2021/05/18 10:49:00;;;;;;;3.13;1.67;;;18.60;58.30;;;;;;6151922;23;20045;-65
2021/05/18 10:51:49;;;;;;;3.78;2.60;;;18.60;58.30;;;;;;6150908;23;20021;-65
2021/05/18 10:54:26;;;;;;;3.17;2.05;;;18.50;58.40;;;;;;6151990;23;20037;-65
2021/05/18 10:59:23;;;;;;;2.78;1.70;;;18.40;58.70;;;;;;6150704;23;20027;-64
2021/05/18 11:01:55;;;;;;;4.68;1.85;;;18.60;58.70;;;;;;6150774;23;20072;-65
2021/05/18 11:04:21;;;;;;;2.28;1.70;;;18.60;58.50;;;;;;6150618;23;20071;-64
2021/05/18 11:06:51;;;;;;;2.92;1.77;;;18.80;58.30;;;;;;6150508;23;20358;-64
2021/05/18 11:09:18;;;;;;;2.20;1.70;;;19.10;58.10;;;;;;6150395;23;20040;-64
2021/05/18 11:11:47;;;;;;;3.33;2.28;;;19.20;57.70;;;;;;6151970;23;20016;-66
2021/05/18 11:14:16;;;;;;;3.65;1.75;;;19.20;57.20;;;;;;6150692;23;20100;-64
2021/05/18 11:16:42;;;;;;;3.58;1.98;;;19.10;57.30;;;;;;6151801;23;20017;-64
2021/05/18 11:19:12;;;;;;;2.45;1.92;;;19.00;57.40;;;;;;6150834;23;20068;-66
2021/05/18 11:21:42;;;;;;;3.67;2.22;;;18.90;57.00;;;;;;6150446;23;20372;-65
2021/05/18 11:24:12;;;;;;;1.85;1.45;;;18.90;57.10;;;;;;6153158;23;20802;-64
2021/05/18 11:26:48;;;;;;;3.50;1.80;;;18.80;57.10;;;;;;6152808;23;20013;-64
2021/05/18 11:29:16;;;;;;;3.95;2.53;;;18.80;57.00;;;;;;6125918;23;20048;-65
2021/05/18 11:31:42;;;;;;;4.15;2.42;;;18.70;56.60;;;;;;6150046;23;20009;-64
2021/05/18 11:34:08;;;;;;;4.13;2.38;;;18.20;56.20;;;;;;6153087;23;20043;-64
2021/05/18 11:36:40;;;;;;;3.80;2.45;;;17.60;57.70;;;;;;6152011;23;20041;-65
2021/05/18 11:39:11;;;;;;;3.67;1.95;;;17.20;58.50;;;;;;6123956;23;20021;-64
2021/05/18 11:41:42;;;;;;;3.75;2.30;;;17.00;59.80;;;;;;6151631;23;20064;-65
2021/05/18 11:44:10;;;;;;;4.28;2.90;;;17.20;60.10;;;;;;6149791;23;20448;-64
2021/05/18 11:46:51;;;;;;;5.07;3.50;;;17.50;59.50;;;;;;6150093;23;20351;-65
2021/05/18 11:49:19;;;;;;;5.15;2.95;;;17.20;58.70;;;;;;6123983;23;20076;-64
2021/05/18 11:51:45;;;;;;;5.43;3.88;;;16.60;59.70;;;;;;6151977;23;20013;-65
2021/05/18 11:54:13;;;;;;;6.85;3.88;;;16.10;61.70;;;;;;6150297;23;20036;-64
2021/05/18 11:56:40;;;;;;;5.53;3.47;;;15.90;62.80;;;;;;6124914;23;20013;-65
2021/05/18 11:59:11;;;;;;;12.75;3.72;;;15.80;62.70;;;;;;6151202;23;20407;-64
2021/05/18 12:01:58;;;;;;;4.78;2.13;;;15.70;63.00;;;;;;6149972;23;20025;-64
2021/05/18 12:04:27;;;;;;;4.10;3.13;;;15.60;64.20;;;;;;6149956;23;20069;-64
2021/05/18 12:06:59;;;;;;;3.70;2.95;;;15.80;63.80;;;;;;6149623;23;20021;-64
2021/05/18 12:09:26;;;;;;;5.50;3.30;;;16.00;63.10;;;;;;6149959;23;20028;-64
2021/05/18 12:12:14;;;;;;;3.42;1.75;;;16.20;62.50;;;;;;6150688;23;20296;-64
2021/05/18 12:14:51;;;;;;;4.93;2.20;;;16.40;62.40;;;;;;6150321;23;20041;-65
2021/05/18 12:17:28;;;;;;;3.28;2.17;;;16.50;62.20;;;;;;6124052;23;20017;-64
2021/05/18 12:19:55;;;;;;;1.90;1.70;;;16.50;62.20;;;;;;6152108;23;20040;-64
2021/05/18 12:22:21;;;;;;;2.42;1.38;;;16.60;62.30;;;;;;6123929;23;20101;-65
2021/05/18 12:24:46;;;;;;;2.40;1.40;;;16.80;62.00;;;;;;6126883;23;20092;-65
2021/05/18 12:27:12;;;;;;;4.32;2.63;;;17.00;61.70;;;;;;6151287;23;20084;-64
2021/05/18 12:29:57;;;;;;;3.30;1.75;;;17.20;60.80;;;;;;6149600;23;20017;-65
2021/05/18 12:32:33;;;;;;;5.85;2.00;;;17.30;61.60;;;;;;6151215;23;20096;-64
2021/05/18 12:35:05;;;;;;;2.50;1.75;;;17.60;62.00;;;;;;6149680;23;20343;-65
2021/05/18 12:37:35;;;;;;;2.97;1.42;;;17.90;60.40;;;;;;6150337;23;20009;-65
2021/05/18 12:40:38;;;;;;;2.58;1.63;;;18.20;60.30;;;;;;6149929;23;20053;-65
2021/05/18 12:43:15;;;;;;;2.22;1.40;;;18.30;59.90;;;;;;6125193;23;20017;-64
2021/05/18 12:45:43;;;;;;;3.00;1.58;;;18.40;59.40;;;;;;6149620;23;20084;-64
2021/05/18 12:48:12;;;;;;;1.95;1.60;;;18.50;59.80;;;;;;6150174;23;20014;-64
2021/05/18 12:50:50;;;;;;;2.70;1.70;;;18.60;59.20;;;;;;6150100;23;20077;-64
2021/05/18 12:53:26;;;;;;;2.00;1.48;;;18.70;59.30;;;;;;6152423;23;20343;-64
2021/05/18 12:55:53;;;;;;;2.53;1.55;;;18.90;58.90;;;;;;6148081;23;20068;-65
2021/05/18 12:58:30;;;;;;;2.75;2.13;;;19.00;58.30;;;;;;6150513;23;20013;-65
2021/05/18 13:01:10;;;;;;;6.10;2.22;;;19.20;56.60;;;;;;6150445;23;20447;-64
2021/05/18 13:03:38;;;;;;;6.85;2.35;;;19.20;55.60;;;;;;6150228;23;20519;-64
2021/05/18 13:06:05;;;;;;;3.95;2.13;;;19.30;55.40;;;;;;6124158;23;20015;-64
2021/05/18 13:08:32;;;;;;;2.97;1.83;;;19.40;54.50;;;;;;6152201;23;20016;-64
2021/05/18 13:13:36;;;;;;;7.93;1.83;;;19.40;55.40;;;;;;6151654;23;20018;-64
2021/05/18 13:16:23;;;;;;;4.57;2.33;;;19.40;55.70;;;;;;6153267;23;20512;-64
2021/05/18 13:18:55;;;;;;;2.25;1.98;;;19.40;54.00;;;;;;6154175;23;20416;-64
2021/05/18 13:21:25;;;;;;;5.72;2.63;;;19.30;53.50;;;;;;6127021;23;20855;-64
2021/05/18 13:26:30;;;;;;;5.22;3.15;;;19.00;55.10;;;;;;6151327;23;20041;-64
2021/05/18 13:28:58;;;;;;;6.72;2.15;;;18.90;53.30;;;;;;6153816;23;20462;-64
2021/05/18 13:31:28;;;;;;;3.70;2.65;;;18.90;54.30;;;;;;6150646;23;20018;-65
2021/05/18 13:33:54;;;;;;;3.95;2.22;;;18.80;54.40;;;;;;6151985;23;20009;-65
2021/05/18 13:36:20;;;;;;;2.45;1.63;;;18.70;54.60;;;;;;6154729;23;20045;-64
2021/05/18 13:38:46;;;;;;;3.67;2.38;;;18.70;55.50;;;;;;6151996;23;20045;-64
2021/05/18 13:41:12;;;;;;;2.40;2.00;;;18.70;55.10;;;;;;6151783;23;20024;-64
2021/05/18 13:43:38;;;;;;;3.00;2.28;;;18.70;55.50;;;;;;6125488;23;20408;-64
2021/05/18 13:46:08;;;;;;;3.25;2.10;;;18.70;55.10;;;;;;6152309;23;20013;-64
2021/05/18 13:48:34;;;;;;;5.97;2.60;;;18.60;54.40;;;;;;6128021;23;20168;-65
2021/05/18 13:51:00;;;;;;;2.90;1.67;;;18.40;54.30;;;;;;6125078;23;20049;-64
2021/05/18 13:53:26;;;;;;;3.88;2.15;;;18.40;56.10;;;;;;6154691;23;20017;-64
2021/05/18 13:55:52;;;;;;;3.92;1.88;;;18.40;55.30;;;;;;6152624;23;20060;-58
2021/05/18 13:58:18;;;;;;;2.47;2.03;;;18.30;55.80;;;;;;6151569;23;20013;-57
2021/05/18 14:00:44;;;;;;;2.67;2.00;;;18.30;56.90;;;;;;6125472;23;20084;-57
2021/05/18 14:03:10;;;;;;;3.25;2.00;;;18.30;57.20;;;;;;6151048;23;20513;-65
2021/05/18 14:05:35;;;;;;;2.97;1.88;;;18.30;55.90;;;;;;6153608;23;20251;-65
2021/05/18 14:11:03;;;;;;;2.42;1.70;;;18.30;55.30;;;;;;6151819;23;20025;-65
2021/05/18 14:13:32;;;;;;;3.28;2.47;;;18.20;55.80;;;;;;6125128;23;20084;-65
2021/05/18 14:16:02;;;;;;;5.15;2.35;;;18.20;55.20;;;;;;6151411;23;20140;-65
2021/05/18 14:18:28;;;;;;;3.78;1.45;;;18.20;55.00;;;;;;6126357;23;20013;-65
2021/05/18 14:20:55;;;;;;;2.28;1.65;;;18.30;57.00;;;;;;6124251;23;20017;-65
2021/05/18 14:23:23;;;;;;;7.15;2.58;;;18.50;57.20;;;;;;6150745;23;20018;-65
2021/05/18 14:25:51;;;;;;;2.40;1.58;;;18.70;58.00;;;;;;6149995;23;20467;-65
2021/05/18 14:28:17;;;;;;;6.63;2.63;;;18.90;58.00;;;;;;6151464;23;20017;-66
2021/05/18 14:30:43;;;;;;;2.17;1.50;;;19.00;56.50;;;;;;6150937;23;20013;-66
2021/05/18 14:33:09;;;;;;;2.67;1.92;;;19.20;56.60;;;;;;6150375;23;20064;-64
2021/05/18 14:35:35;;;;;;;3.30;1.98;;;19.30;55.10;;;;;;6152418;23;20065;-66
2021/05/18 14:38:16;;;;;;;3.63;2.70;;;19.10;54.20;;;;;;6149767;23;20018;-65
2021/05/18 14:45:43;;;;;;;4.85;2.50;;;18.30;53.70;;;;;;6124521;23;20104;-65
2021/05/18 14:56:23;;;;;;;4.32;2.33;;;17.70;54.90;;;;;;6150588;23;20019;-66
2021/05/18 14:58:49;;;;;;;2.83;2.42;;;17.60;55.50;;;;;;6153356;23;20396;-65
2021/05/18 15:01:15;;;;;;;3.13;2.60;;;17.40;54.40;;;;;;6152589;23;20017;-64
2021/05/18 15:03:41;;;;;;;3.55;2.50;;;17.30;54.40;;;;;;6124605;23;20010;-65
2021/05/18 15:06:07;;;;;;;4.20;2.67;;;17.20;54.30;;;;;;6150197;23;20021;-65
2021/05/18 15:08:33;;;;;;;3.05;2.35;;;17.20;53.50;;;;;;6150666;23;20037;-64
2021/05/18 15:11:02;;;;;;;4.38;2.67;;;17.10;54.90;;;;;;6152691;23;20451;-65
2021/05/18 15:13:31;;;;;;;6.63;2.83;;;17.00;54.50;;;;;;6124249;23;20032;-65
2021/05/18 15:15:57;;;;;;;4.82;3.42;;;16.90;53.80;;;;;;6152068;23;20041;-68
2021/05/18 15:18:23;;;;;;;5.63;2.85;;;16.80;53.70;;;;;;6150360;23;20353;-67
2021/05/18 15:20:49;;;;;;;6.18;2.75;;;16.70;54.20;;;;;;6151570;23;20021;-66
2021/05/18 15:23:15;;;;;;;4.05;2.00;;;16.80;54.10;;;;;;6124088;23;20085;-65
2021/05/18 15:25:41;;;;;;;4.88;2.45;;;16.80;54.00;;;;;;6149888;23;20013;-65
2021/05/18 15:28:06;;;;;;;2.83;2.40;;;16.80;54.00;;;;;;6150477;23;20021;-63
2021/05/18 15:30:33;;;;;;;3.15;2.47;;;16.70;53.70;;;;;;6150651;23;20017;-63
2021/05/18 15:32:59;;;;;;;4.15;2.30;;;16.60;53.90;;;;;;6150108;23;20048;-63
2021/05/18 15:35:25;;;;;;;4.07;2.50;;;16.40;53.90;;;;;;6150442;23;20045;-63
2021/05/18 15:37:51;;;;;;;4.95;2.50;;;16.20;54.10;;;;;;6150300;23;20013;-63
2021/05/18 15:40:17;;;;;;;4.72;2.25;;;16.20;54.40;;;;;;6150376;23;20432;-64
2021/05/18 15:42:43;;;;;;;4.22;3.28;;;16.10;54.90;;;;;;6153448;23;20018;-65
2021/05/18 15:45:10;;;;;;;4.25;3.40;;;16.00;54.00;;;;;;6150918;23;20017;-65
2021/05/18 15:47:36;;;;;;;3.70;2.78;;;16.00;54.10;;;;;;6151919;23;20090;-66
2021/05/18 15:50:04;;;;;;;4.85;2.80;;;15.90;54.00;;;;;;6149684;23;20028;-62
2021/05/18 15:52:30;;;;;;;4.45;2.10;;;15.90;54.10;;;;;;6151576;23;20020;-63
2021/05/18 15:54:56;;;;;;;3.28;2.00;;;15.90;54.60;;;;;;6150063;23;20018;-63
2021/05/18 15:57:22;;;;;;;2.63;2.08;;;15.90;55.10;;;;;;6149665;23;20351;-64
2021/05/18 15:59:49;;;;;;;2.17;1.77;;;15.80;55.40;;;;;;6149922;23;20462;-65
2021/05/18 16:02:16;;;;;;;5.63;2.10;;;15.70;55.50;;;;;;6152230;23;20021;-63
2021/05/18 16:04:42;;;;;;;4.30;2.08;;;15.60;55.50;;;;;;6150179;23;20645;-63
2021/05/18 16:07:11;;;;;;;3.90;2.17;;;15.50;56.00;;;;;;6149909;23;20014;-65
2021/05/18 16:09:37;;;;;;;3.92;2.33;;;15.50;56.30;;;;;;6150159;23;20018;-65
2021/05/18 16:12:03;;;;;;;4.72;1.85;;;15.40;56.50;;;;;;6151081;23;20096;-66
2021/05/18 16:14:29;;;;;;;2.72;2.33;;;15.30;56.80;;;;;;6150680;23;20037;-63
2021/05/18 16:16:55;;;;;;;3.85;2.45;;;15.30;57.20;;;;;;6150541;23;20013;-62
2021/05/18 16:19:21;;;;;;;3.65;2.58;;;15.30;57.60;;;;;;6124197;23;20372;-62
2021/05/18 16:21:47;;;;;;;2.80;2.25;;;15.30;58.00;;;;;;6150584;23;20018;-62
2021/05/18 16:24:13;;;;;;;3.72;2.50;;;15.30;58.20;;;;;;6151807;23;20484;-62
2021/05/18 16:26:40;;;;;;;4.40;2.45;;;15.30;58.00;;;;;;6152160;23;20018;-63
2021/05/18 16:29:06;;;;;;;2.65;2.45;;;15.30;58.20;;;;;;6149559;23;20024;-63
2021/05/18 16:31:32;;;;;;;3.60;2.33;;;15.30;58.40;;;;;;6149858;23;20217;-63
2021/05/18 16:33:58;;;;;;;3.92;2.20;;;15.30;58.70;;;;;;6120841;23;20037;-63
2021/05/18 16:36:26;;;;;;;2.63;2.15;;;15.30;59.10;;;;;;6152708;23;20017;-64
2021/05/18 16:38:52;;;;;;;3.83;3.20;;;15.20;59.00;;;;;;6153393;23;20014;-64
2021/05/18 16:41:18;;;;;;;3.78;2.63;;;15.10;59.20;;;;;;6150533;23;20009;-65
2021/05/18 16:43:45;;;;;;;3.83;2.83;;;15.10;59.20;;;;;;6152023;23;20075;-64
2021/05/18 16:46:12;;;;;;;3.75;2.70;;;15.10;59.30;;;;;;6151843;23;20392;-63
2021/05/18 16:48:38;;;;;;;2.92;2.25;;;15.20;59.50;;;;;;6125765;23;20068;-63
2021/05/18 16:51:05;;;;;;;5.93;2.80;;;15.10;59.80;;;;;;6152313;23;20025;-63
2021/05/18 16:53:32;;;;;;;3.78;2.67;;;15.20;59.90;;;;;;6125602;23;20490;-62
2021/05/18 16:56:04;;;;;;;5.20;2.60;;;15.10;60.00;;;;;;6125770;23;20022;-63
2021/05/18 16:58:30;;;;;;;5.45;2.70;;;15.10;60.40;;;;;;6151547;23;20017;-62
2021/05/18 17:00:56;;;;;;;3.15;2.40;;;15.00;60.70;;;;;;6152092;23;20049;-62
2021/05/18 17:03:22;;;;;;;2.28;1.88;;;15.00;60.80;;;;;;6153497;23;20017;-63
2021/05/18 17:05:49;;;;;;;3.80;2.22;;;14.90;60.70;;;;;;6154907;23;20036;-63
2021/05/18 17:08:15;;;;;;;3.33;2.28;;;14.90;61.00;;;;;;6153030;23;20013;-62
2021/05/18 17:10:42;;;;;;;5.50;2.85;;;14.90;61.00;;;;;;6151409;23;20478;-61
2021/05/18 17:13:08;;;;;;;4.47;2.45;;;14.80;61.00;;;;;;6152331;23;20519;-62
2021/05/18 17:15:35;;;;;;;4.32;2.58;;;14.80;61.80;;;;;;6152223;23;20017;-62
2021/05/18 17:18:01;;;;;;;3.45;2.78;;;14.80;61.60;;;;;;6152167;23;20110;-63
2021/05/18 17:20:28;;;;;;;5.75;2.50;;;14.80;62.20;;;;;;6152002;23;20104;-63
2021/05/18 17:22:55;;;;;;;3.50;2.35;;;14.80;62.30;;;;;;6151187;23;20017;-63
2021/05/18 17:25:21;;;;;;;2.75;2.55;;;14.80;62.30;;;;;;6152159;23;20014;-63
2021/05/18 17:27:47;;;;;;;2.97;2.38;;;14.80;62.30;;;;;;6126397;23;20110;-63
2021/05/18 17:30:19;;;;;;;3.38;2.20;;;14.80;62.20;;;;;;6151963;23;20104;-63
2021/05/18 17:32:45;;;;;;;3.97;1.90;;;14.90;62.40;;;;;;6152428;23;20010;-63
2021/05/18 17:35:12;;;;;;;3.25;2.13;;;14.80;62.50;;;;;;6150948;23;20065;-63
2021/05/18 17:37:41;;;;;;;4.85;2.53;;;14.80;62.50;;;;;;6099900;23;20049;-63
2021/05/18 17:40:08;;;;;;;4.85;2.50;;;14.80;62.50;;;;;;6151971;23;20021;-63
2021/05/18 17:42:34;;;;;;;2.45;2.05;;;14.70;62.50;;;;;;6151377;23;20058;-62
2021/05/18 17:45:05;;;;;;;3.63;2.28;;;14.70;62.70;;;;;;6151917;23;20025;-63
2021/05/18 17:47:32;;;;;;;4.95;2.75;;;14.70;63.10;;;;;;6151399;23;20017;-63
2021/05/18 17:49:58;;;;;;;4.43;2.15;;;14.60;63.20;;;;;;6152227;23;20146;-62